Frankfort, KY

12:25 AM EST on December 22, 2014 (GMT -0500)
Capital City | Change Station
CLOSE
Current Station
Airport
Location: Frankfort,
Elevation: 804 ft
Nearby Weather Stations

Elev 804 ft 38.18 °N, 84.90 °W | Updated 32 minutes ago

Clear
Clear
29 °F
Feels Like 23 °F
N
6
Wind Variable Wind from East

Today
High -- | Low -- °F
--% Chance of Precip.
Yesterday
High -- | Low -- °F
Precip. -- in
7:53 AM 5:23 PM
New Moon, 0% visible
Pressure 30.10 in
Visibility 8.0 miles
Clouds Clear
Windchill 23 °F
Dew Point 24 °F
Humidity 82%
Rainfall 0.00 in
Snow Depth Not available.
UV 0 out of 12
Pollen .10 out of 12
Air Quality Not available.
Flu Activity Not available.
METAR KFFT 220453Z AUTO 09005KT 8SM CLR M02/M04 A3007 RMK AO2 SLP191 T10171044 400441078

More Conditions Fewer Conditions

Pressure 30.10 in
Visibility 8.0 miles
Clouds Clear
Windchill 23 °F
Dew Point 24 °F
Humidity 82%
Rainfall 0.00 in
Snow Depth Not available.
UV 0 out of 12
Pollen .10 out of 12
Air Quality Not available.
Flu Activity Not available.
METAR KFFT 220453Z AUTO 09005KT 8SM CLR M02/M04 A3007 RMK AO2 SLP191 T10171044 400441078

More Conditions Fewer Conditions

10-Day Weather Forecast

Almanac

Astronomy

Dec. 22, 2014 Rise Set
Actual Time
Civil Twilight
Nautical Twilight
Astronomical Twilight
Moon
Length of Visible Light
Length of Day
Tomorrow will be .
, % of the Moon is Illuminated

Today's Extremes

State Highs State Lows

Community

WunderPhotos

Upload Photos

1,779,549 photos uploaded!

WunderBlogs® & News

Nearby

Air Quality

  Air Quality AQ Index Pollutant
Not available.

Snow Depth

Station Depth Elevation

Earthquake Activity

City Distance Mag. Time & Date
Minimum magnitude displayed is 2.5.

Coastal Water Temperatures

Place Temperature

Nearby Weather Stations